Language: 


Des rapports , des résumés tant et plus, au choix de chacun....


Données statistiques de la station
Quotidien Rapport Mars 28, 2017 Unités:  Anglais    Métrique   les deux
« Précédent Jour
Suivant Jour »
Quotidien Hebdomadaire Mensuel Annuel Actuel
  Haut: Bas: Moyen:
Température: 70.5 °F 32 °F 51.8 °F
Pt de rosée: 48.6 °F 34.2 °F 41.9 °F
Humidité: 93 % 0 % 69 %
Vitesse du vent: 18.8 mph 0 mph 4.3 mph
Rafales: 23 mph - -
Vent:- - WSW
Pression: 30.2 in 0 in -
Précipitation: 0 in    
Historical Graphs
 
 
Données statistiques pour Mars 28, 2017
Heure Température Point de rosée Pression Vent Vitesse du vent Refales Humidité Pluie (taux horaire)
00:05 45.9 °F 36.5 °F 30.1 in Calm     70 % 0 in
00:10 45.9 °F 36.5 °F 30.1 in Calm     70 % 0 in
00:15 45.9 °F 36.9 °F 30.1 in Calm     71 % 0 in
00:20 45.7 °F 36.7 °F 30.1 in Calm     71 % 0 in
00:25 45.1 °F 36 °F 30.1 in Calm     70 % 0 in
00:30 45.1 °F 36.1 °F 30.1 in Calm     71 % 0 in
00:35 45 °F 36.3 °F 30.1 in Calm     72 % 0 in
00:40 44.4 °F 36.3 °F 30.1 in NNE 2.2 mph 2.7 mph 73 % 0 in
00:45 44.4 °F 36.3 °F 30.1 in Calm   2.7 mph 73 % 0 in
00:50 44.4 °F 36.3 °F 30.1 in Calm   1.6 mph 73 % 0 in
00:55 44.2 °F 36.1 °F 30.1 in Calm     73 % 0 in
01:00 44.1 °F 36.7 °F 30.1 in Calm     75 % 0 in
01:05 44.1 °F 36.7 °F 30.1 in Calm     75 % 0 in
01:10 43.9 °F 36.3 °F 30.1 in Calm   2.7 mph 75 % 0 in
01:15 43.9 °F 36.7 °F 30.1 in Calm   3.1 mph 76 % 0 in
01:20 44.1 °F 36.9 °F 30.1 in Calm   3.1 mph 76 % 0 in
01:25 44.2 °F 37.4 °F 30.1 in Calm   3.4 mph 77 % 0 in
01:30 44.2 °F 37.6 °F 30.1 in Calm   3.4 mph 77 % 0 in
01:35 44.2 °F 37.2 °F 30.1 in Calm   2 mph 76 % 0 in
01:40 44.2 °F 37.4 °F 30.1 in Calm     77 % 0 in
01:45 43.9 °F 36.7 °F 30.1 in Calm     76 % 0 in
01:50 43.3 °F 36.1 °F 30.1 in Calm     76 % 0 in
01:55 43.2 °F 36.1 °F 30.1 in Calm     76 % 0 in
02:00 42.6 °F 35.4 °F 30.1 in Calm     76 % 0 in
02:05 42.1 °F 35.4 °F 30.1 in Calm     77 % 0 in
02:10 41.9 °F 35.2 °F 30.1 in Calm     77 % 0 in
02:15 41.5 °F 34.9 °F 30.1 in Calm     77 % 0 in
02:20 41 °F 34.3 °F 30.1 in Calm     77 % 0 in
02:25 41 °F 34.3 °F 30.1 in Calm     77 % 0 in
02:30 41 °F 34.7 °F 30.1 in Calm     78 % 0 in
02:35 41 °F 35.1 °F 30.1 in Calm     79 % 0 in
02:40 41 °F 35.2 °F 30.1 in Calm     80 % 0 in
02:45 40.6 °F 35.2 °F 30.1 in Calm     81 % 0 in
02:50 40.5 °F 35.1 °F 30.1 in Calm     81 % 0 in
02:55 40.5 °F 35.1 °F 30.1 in Calm     81 % 0 in
03:02 32 °F 35.6 °F 0 in Calm     0 % 0 in
03:07 32 °F 35.4 °F 0 in Calm     0 % 0 in
03:12 40.3 °F 35.4 °F 30.1 in Calm     83 % 0 in
03:17 40.3 °F 35.4 °F 30.1 in Calm     83 % 0 in
03:22 40.3 °F 35.4 °F 30.1 in Calm     83 % 0 in
03:27 40.3 °F 35.4 °F 30.1 in Calm     83 % 0 in
03:32 40.3 °F 35.8 °F 30.1 in Calm     84 % 0 in
03:37 40.1 °F 35.8 °F 30.1 in Calm     84 % 0 in
03:42 39.9 °F 35.4 °F 30.1 in Calm     84 % 0 in
03:47 39.9 °F 35.4 °F 30.1 in Calm     84 % 0 in
03:52 39.9 °F 35.4 °F 30.1 in Calm     84 % 0 in
03:57 39.9 °F 35.8 °F 30.1 in Calm     85 % 0 in
04:02 39.7 °F 35.6 °F 30.1 in Calm     85 % 0 in
04:07 39.7 °F 35.6 °F 30.1 in Calm     85 % 0 in
04:12 39.9 °F 35.8 °F 30.1 in Calm     85 % 0 in
04:17 39.7 °F 36 °F 30.1 in Calm     86 % 0 in
04:22 39.6 °F 35.8 °F 30.1 in Calm     86 % 0 in
04:27 39.2 °F 35.1 °F 30.1 in Calm     85 % 0 in
04:32 38.8 °F 35.1 °F 30.1 in Calm     86 % 0 in
04:37 38.7 °F 34.9 °F 30.1 in Calm     86 % 0 in
04:42 38.5 °F 34.7 °F 30.1 in Calm     86 % 0 in
04:47 38.5 °F 34.5 °F 30.1 in Calm     86 % 0 in
04:52 38.7 °F 34.9 °F 30.1 in Calm     86 % 0 in
04:57 38.7 °F 35.2 °F 30.1 in Calm     87 % 0 in
05:02 38.8 °F 35.2 °F 30.1 in Calm     87 % 0 in
05:07 38.8 °F 35.2 °F 30.1 in Calm     87 % 0 in
05:12 39 °F 35.4 °F 30.1 in Calm     87 % 0 in
05:17 39 °F 35.4 °F 30.1 in Calm     87 % 0 in
05:22 38.8 °F 35.6 °F 30.1 in Calm     88 % 0 in
05:27 38.8 °F 35.6 °F 30.1 in Calm     88 % 0 in
05:32 38.8 °F 35.6 °F 30.1 in Calm     88 % 0 in
05:37 38.7 °F 35.4 °F 30.1 in Calm     88 % 0 in
05:42 38.5 °F 35.1 °F 30.1 in Calm     88 % 0 in
05:47 37.9 °F 34.5 °F 30.1 in Calm     87 % 0 in
05:52 37.6 °F 34.2 °F 30.1 in Calm     87 % 0 in
05:57 37.8 °F 34.3 °F 30.1 in Calm     87 % 0 in
06:02 37.8 °F 34.5 °F 30.1 in Calm     88 % 0 in
06:07 37.8 °F 34.5 °F 30.1 in Calm   1.6 mph 88 % 0 in
06:12 37.6 °F 34.3 °F 30.1 in Calm   1.6 mph 88 % 0 in
06:17 37.8 °F 34.9 °F 30.1 in Calm     89 % 0 in
06:22 37.8 °F 34.9 °F 30.1 in Calm     89 % 0 in
06:27 37.6 °F 34.7 °F 30.1 in Calm     89 % 0 in
06:32 37.6 °F 34.5 °F 30.1 in Calm     89 % 0 in
06:37 37.2 °F 34.3 °F 30.1 in Calm     89 % 0 in
06:42 37.6 °F 34.5 °F 30.1 in Calm   1.6 mph 89 % 0 in
06:47 37.6 °F 34.7 °F 30.1 in Calm   1.6 mph 89 % 0 in
06:52 37.6 °F 34.7 °F 30.1 in Calm   0.9 mph 89 % 0 in
06:58 37.6 °F 34.7 °F 30.1 in Calm   0.9 mph 89 % 0 in
07:03 37.6 °F 34.7 °F 30.1 in Calm     89 % 0 in
07:08 37.6 °F 34.9 °F 30.1 in Calm     90 % 0 in
07:13 37.6 °F 35.1 °F 30.1 in Calm     90 % 0 in
07:18 37.6 °F 35.1 °F 30.1 in Calm   2.2 mph 90 % 0 in
07:23 37.8 °F 35.2 °F 30.1 in Calm   2.2 mph 90 % 0 in
07:28 37.6 °F 35.1 °F 30.1 in Calm     90 % 0 in
07:33 37.6 °F 35.1 °F 30.1 in Calm     90 % 0 in
07:38 37.6 °F 35.1 °F 30.1 in Calm     90 % 0 in
07:43 37.8 °F 35.4 °F 30.1 in Calm     91 % 0 in
07:48 37.8 °F 35.4 °F 30.1 in Calm     91 % 0 in
07:53 37.9 °F 36 °F 30.1 in Calm     92 % 0 in
07:58 38.5 °F 36.1 °F 30.1 in Calm     92 % 0 in
08:03 38.5 °F 36.3 °F 30.1 in Calm   0.9 mph 92 % 0 in
08:08 38.7 °F 36.9 °F 30.1 in Calm   2 mph 93 % 0 in
12:43 32 °F 47.8 °F 0 in West 5.6 mph 7.4 mph 0 % 0 in
12:48 67.5 °F 47.1 °F 30.2 in SSW 5.4 mph 10.5 mph 48 % 0 in
12:53 68.2 °F 47.1 °F 30.2 in SW 6.3 mph 10.5 mph 47 % 0 in
12:58 68.7 °F 48.2 °F 30.2 in SW 4.9 mph 7.6 mph 48 % 0 in
13:03 69.4 °F 47.7 °F 30.2 in SW 4.9 mph 7.6 mph 46 % 0 in
13:08 69.6 °F 48 °F 30.2 in WSW 5.8 mph 6.3 mph 46 % 0 in
13:13 69.6 °F 47.8 °F 30.2 in WSW 7.2 mph 8.5 mph 46 % 0 in
13:14 69.6 °F 47.8 °F 30.2 in WSW 7.4 mph 10.5 mph 46 % 0 in
13:19 32 °F 46.6 °F 0 in WSW 10.7 mph 10.7 mph 0 % 0 in
13:24 69.1 °F 46.8 °F 30.2 in WSW 10.1 mph 10.7 mph 45 % 0 in
13:29 69.3 °F 46.9 °F 30.2 in WSW 10.3 mph 13 mph 45 % 0 in
13:34 69.1 °F 46.8 °F 30.2 in SW 8.7 mph 13.9 mph 45 % 0 in
13:39 69.6 °F 46.8 °F 30.2 in SSW 7.6 mph 13.9 mph 44 % 0 in
13:44 69.6 °F 46.8 °F 30.2 in WSW 7.8 mph 13 mph 44 % 0 in
13:49 70.3 °F 47.3 °F 30.2 in SW 4.3 mph 13 mph 44 % 0 in
13:54 70.2 °F 47.1 °F 30.2 in SW 6 mph 12.5 mph 44 % 0 in
13:59 70 °F 46.9 °F 30.2 in WSW 7.8 mph 12.5 mph 44 % 0 in
14:04 70.2 °F 47.1 °F 30.2 in SSW 6 mph 12.3 mph 44 % 0 in
14:09 70.5 °F 47.7 °F 30.2 in West 6 mph 10.7 mph 44 % 0 in
14:14 70 °F 46.9 °F 30.2 in WSW 12.3 mph 12.3 mph 44 % 0 in
14:19 69.6 °F 46.8 °F 30.2 in WSW 11.2 mph 13 mph 44 % 0 in
14:24 70 °F 46.9 °F 30.2 in SSW 12.5 mph 13 mph 44 % 0 in
14:29 70.3 °F 46.8 °F 30.2 in WSW 7.4 mph 11.2 mph 43 % 0 in
14:34 70.5 °F 46.9 °F 30.2 in SW 6.3 mph 12.5 mph 43 % 0 in
14:39 70.5 °F 46.9 °F 0 in WSW 11.9 mph 12.6 mph 43 % 0 in
14:44 70.2 °F 46.6 °F 30.1 in WSW 10.5 mph 14.5 mph 43 % 0 in
14:49 70.2 °F 46.6 °F 30.1 in WSW 7.2 mph 14.5 mph 43 % 0 in
14:54 69.6 °F 46.2 °F 30.1 in WSW 10.5 mph 14.5 mph 43 % 0 in
14:59 69.6 °F 46.2 °F 30.1 in WSW 10.7 mph 15.4 mph 43 % 0 in
15:04 69.6 °F 46.2 °F 30.1 in WSW 7.6 mph 14.8 mph 43 % 0 in
15:09 70.3 °F 46.8 °F 30.1 in WSW 12.1 mph 14.8 mph 43 % 0 in
15:14 69.6 °F 46.2 °F 30.1 in WSW 11.9 mph 15.7 mph 43 % 0 in
15:19 68.9 °F 45.3 °F 30.1 in West 9.8 mph 14.1 mph 43 % 0 in
15:24 32 °F 44.2 °F 0 in WSW 12.8 mph 12.8 mph 0 % 0 in
15:29 67.1 °F 44.4 °F 30.1 in WSW 7.4 mph 14.8 mph 44 % 0 in
15:34 66.7 °F 44.1 °F 30.1 in WSW 8.9 mph 12.8 mph 44 % 0 in
15:39 66.7 °F 44.8 °F 30.1 in WSW 10.7 mph 13 mph 45 % 0 in
15:44 66.4 °F 44.4 °F 30.1 in West 7.2 mph 13 mph 45 % 0 in
15:49 66 °F 44.8 °F 30.1 in SW 8.1 mph 12.5 mph 46 % 0 in
15:54 66 °F 44.8 °F 30.1 in WSW 8.1 mph 12.5 mph 46 % 0 in
15:59 66 °F 45.1 °F 30.1 in West 8.1 mph 12.5 mph 47 % 0 in
16:04 66.9 °F 46.6 °F 30.1 in WSW 14.8 mph 14.8 mph 48 % 0 in
16:09 67.1 °F 46.2 °F 30.2 in WSW 6.5 mph 14.8 mph 47 % 0 in
16:14 67.1 °F 46.2 °F 30.2 in West 10.3 mph 12.5 mph 47 % 0 in
16:19 67.5 °F 46.6 °F 30.2 in West 7.8 mph 14.5 mph 47 % 0 in
16:24 67.6 °F 47.1 °F 30.1 in WSW 9.8 mph 14.5 mph 48 % 0 in
16:29 66.6 °F 46.2 °F 30.1 in West 6.3 mph 12.3 mph 48 % 0 in
16:34 66.9 °F 47.1 °F 30.1 in West 4.9 mph 12.3 mph 49 % 0 in
16:39 66.4 °F 46 °F 30.2 in SW 8.5 mph 10.7 mph 48 % 0 in
16:44 66.7 °F 46.4 °F 30.2 in West 15.4 mph 15.4 mph 48 % 0 in
16:49 67.1 °F 46.8 °F 30.2 in WSW 12.5 mph 17.2 mph 48 % 0 in
16:54 66 °F 46.2 °F 30.2 in West 12.8 mph 19.9 mph 49 % 0 in
16:59 65.7 °F 47.1 °F 30.2 in West 11 mph 21.9 mph 51 % 0 in
17:04 65.5 °F 47.5 °F 30.2 in West 15.2 mph 21.9 mph 52 % 0 in
17:09 65.1 °F 47.7 °F 30.2 in West 12.3 mph 18.8 mph 53 % 0 in
17:14 64.2 °F 46.2 °F 30.2 in WSW 17.2 mph 21.9 mph 52 % 0 in
17:19 63.1 °F 46.2 °F 30.2 in West 15.2 mph 23 mph 54 % 0 in
17:24 62.4 °F 46.6 °F 30.2 in West 17.9 mph 23 mph 56 % 0 in
17:29 63.3 °F 47.8 °F 30.2 in WSW 14.5 mph 19.7 mph 57 % 0 in
17:34 63 °F 48 °F 30.2 in WSW 9.8 mph 19.7 mph 58 % 0 in
17:39 62.2 °F 48 °F 30.2 in West 11.9 mph 19.7 mph 60 % 0 in
17:44 62.4 °F 48.4 °F 30.2 in WSW 10.1 mph 19.7 mph 60 % 0 in
17:49 62.8 °F 48.6 °F 30.2 in WSW 18.8 mph 19.2 mph 60 % 0 in
17:54 62.8 °F 47.1 °F 30.2 in West 13 mph 18.8 mph 57 % 0 in
17:59 62.1 °F 46.9 °F 30.2 in WSW 15.4 mph 16.1 mph 58 % 0 in
18:04 61.2 °F 47.1 °F 30.2 in WSW 12.5 mph 16.1 mph 60 % 0 in
18:09 61 °F 47.5 °F 30.2 in WSW 10.1 mph 16.1 mph 61 % 0 in
18:14 60.6 °F 47.1 °F 30.2 in WSW 8.7 mph 13.9 mph 61 % 0 in
18:19 60.4 °F 46.9 °F 30.2 in WSW 9.8 mph 13.9 mph 61 % 0 in
18:24 61 °F 47.8 °F 30.2 in WSW 12.3 mph 14.3 mph 62 % 0 in
18:29 61.5 °F 48.4 °F 30.2 in WSW 12.8 mph 17.4 mph 62 % 0 in
18:34 61.9 °F 48.2 °F 30.2 in West 10.7 mph 17.7 mph 61 % 0 in
18:39 62.1 °F 47.8 °F 30.2 in West 10.3 mph 17.7 mph 60 % 0 in
18:44 61.5 °F 47.5 °F 30.2 in West 10.3 mph 17.2 mph 60 % 0 in
18:49 61.2 °F 46.8 °F 30.2 in West 10.1 mph 17 mph 59 % 0 in
18:55 61.2 °F 47.1 °F 30.2 in WSW 8.7 mph 17 mph 60 % 0 in
18:59 60.1 °F 46.9 °F 30.2 in WSW 17 mph 17 mph 62 % 0 in
19:05 59.7 °F 46.6 °F 30.2 in WSW 12.3 mph 17.7 mph 62 % 0 in
19:10 59.2 °F 46.6 °F 30.2 in West 6.5 mph 17.7 mph 63 % 0 in
19:15 58.6 °F 46.9 °F 30.2 in West 9.6 mph 13 mph 65 % 0 in
19:20 58.3 °F 46.9 °F 30.2 in WSW 8.7 mph 13 mph 66 % 0 in
19:25 58.1 °F 47.1 °F 30.2 in SW 7.4 mph 13 mph 67 % 0 in
19:30 57.9 °F 47.5 °F 30.2 in West 10.5 mph 14.5 mph 68 % 0 in
19:35 57.6 °F 47.1 °F 30.2 in WSW 7.4 mph 14.5 mph 68 % 0 in
19:40 57.4 °F 46.9 °F 30.2 in West 10.3 mph 13 mph 68 % 0 in
19:45 57.2 °F 47.1 °F 30.2 in WSW 11 mph 13 mph 69 % 0 in
19:50 57 °F 46.9 °F 30.2 in WSW 9.6 mph 13 mph 69 % 0 in
19:55 56.7 °F 46.6 °F 30.2 in WSW 10.3 mph 12.3 mph 69 % 0 in
20:00 56.7 °F 46.6 °F 30.2 in WSW 7.6 mph 12.8 mph 69 % 0 in
20:05 56.5 °F 46.8 °F 30.2 in WSW 6.3 mph 12.8 mph 70 % 0 in
20:10 56.1 °F 46.6 °F 30.2 in West 6 mph 10.5 mph 70 % 0 in
20:15 55.9 °F 46.2 °F 30.2 in West 7.8 mph 10.3 mph 70 % 0 in
20:20 55.8 °F 46.6 °F 30.2 in West 7.4 mph 9.6 mph 71 % 0 in
20:25 55.6 °F 46.2 °F 30.2 in West 5.4 mph 8.5 mph 71 % 0 in
20:30 55 °F 45.9 °F 30.2 in WSW 4.3 mph 7.6 mph 71 % 0 in
20:35 54.7 °F 45.3 °F 30.2 in West 4.7 mph 6 mph 71 % 0 in
20:40 54 °F 45.1 °F 30.2 in Calm   4.7 mph 72 % 0 in
20:45 53.8 °F 45 °F 30.2 in WSW 6.5 mph 6.5 mph 72 % 0 in
20:50 53.4 °F 44.8 °F 30.2 in Calm   6.5 mph 72 % 0 in
20:55 53.2 °F 45 °F 30.2 in Calm   6 mph 73 % 0 in
21:00 53.2 °F 45.1 °F 30.2 in WSW 6 mph 7.2 mph 74 % 0 in
21:05 52.9 °F 45.1 °F 30.2 in WSW 5.6 mph 7.2 mph 75 % 0 in
21:10 52.5 °F 45 °F 30.2 in WSW 5.6 mph 6.3 mph 75 % 0 in
21:15 52.2 °F 44.4 °F 30.2 in WSW 3.6 mph 6.3 mph 75 % 0 in
21:20 51.6 °F 43.9 °F 30.2 in Calm   5.6 mph 75 % 0 in
21:25 51.3 °F 43.9 °F 30.2 in Calm   3.1 mph 76 % 0 in
21:30 50.9 °F 43.5 °F 30.2 in Calm   4 mph 76 % 0 in
21:35 50.5 °F 43.5 °F 30.2 in Calm   4 mph 77 % 0 in
21:40 50.4 °F 43.3 °F 30.2 in Calm     77 % 0 in
21:45 50.4 °F 43.7 °F 30.2 in Calm     78 % 0 in
21:50 50.4 °F 44.1 °F 30.2 in Calm   1.3 mph 79 % 0 in
21:55 50.4 °F 44.4 °F 30.2 in Calm   3.6 mph 80 % 0 in
22:00 50.9 °F 45.3 °F 30.2 in SW 3.8 mph 5.4 mph 81 % 0 in
22:05 51.3 °F 46.2 °F 30.2 in SW 4 mph 5.4 mph 83 % 0 in
22:10 51.8 °F 46.8 °F 30.2 in Calm   5.6 mph 83 % 0 in
22:15 52 °F 46.9 °F 30.2 in SSW 4 mph 6 mph 83 % 0 in
22:20 52.2 °F 47.1 °F 30.2 in Calm   6 mph 83 % 0 in
22:26 52.3 °F 47.3 °F 30.2 in Calm   4 mph 83 % 0 in
22:31 52.5 °F 47.5 °F 30.2 in Calm   5.6 mph 83 % 0 in
22:36 52.5 °F 47.7 °F 30.2 in WSW 4.3 mph 5.8 mph 83 % 0 in
22:41 52.9 °F 47.8 °F 30.2 in SW 2.9 mph 6.3 mph 83 % 0 in
22:46 53.1 °F 48 °F 30.2 in SW 5.6 mph 6.3 mph 83 % 0 in
22:51 53.2 °F 47.8 °F 30.2 in SW 5.6 mph 7.2 mph 82 % 0 in
22:56 53.2 °F 47.8 °F 30.2 in Calm   7.2 mph 82 % 0 in
23:01 53.2 °F 47.8 °F 30.2 in Calm   7.8 mph 82 % 0 in
23:06 53.1 °F 47.7 °F 30.2 in Calm   7.8 mph 82 % 0 in
23:11 52.9 °F 47.5 °F 30.2 in Calm   6.5 mph 82 % 0 in
23:16 52.9 °F 47.5 °F 30.2 in SSW 4.3 mph 6.5 mph 82 % 0 in
23:21 52.5 °F 47.3 °F 30.2 in SSW 3.8 mph 6.3 mph 82 % 0 in
23:26 52.3 °F 46.6 °F 30.2 in SW 4.3 mph 5.8 mph 81 % 0 in
23:31 52 °F 46.2 °F 30.2 in Calm   5.8 mph 81 % 0 in
23:36 51.8 °F 46.4 °F 30.2 in SW 3.1 mph 5.8 mph 82 % 0 in
23:41 51.6 °F 46.2 °F 30.2 in Calm   5.8 mph 82 % 0 in
23:46 51.3 °F 45.9 °F 30.2 in Calm   4.3 mph 82 % 0 in
23:51 51.1 °F 45.7 °F 30.2 in WSW 2.9 mph 3.1 mph 82 % 0 in
23:56 50.9 °F 45.7 °F 30.2 in Calm   3.1 mph 82 % 0 in
Le Gheer Warneton
Courtoisie de Weather Underground - 2 mb

Mise a jour : 17/12/2017 22:23:12
Généré par Cumulus 1.9.4 (1099)